Latest Coastal Weather Observations for Norfolk Island

IDN60701

Issued at 4:41 am EST Saturday 4 July 2015 (issued every 10 minutes, with the page automatically refreshed every 10 minutes)

About coastal observations | Map of coastal stations | Coastal observations for NSW | Marine services | Other Formats
Station Details ID: 200288 Name: NORFOLK ISLAND AERO Lat: -29.04 Lon: 167.94 Height: 111.73 m
Data from the previous 72 hours. | See also: Recent months at Norfolk Island
Date/Time
EST
Temp

°C
Wind Pressure Rain
since 9am
mm
Weather Cloud Vis
km
Sea
Height
m
Swell
Dir
 
Speed
knots
Gust
knots
hPa Trend Height
m
Period
s
Dir
04/04:30am 14.8 WSW 13 19 1006.6 - 7.6 - Partly cloudy 10 - - - -
04/04:00am 15.4 WSW 16 23 1006.5 - 7.6 - Partly cloudy 10 - - - -
04/03:30am 14.9 SW 14 20 1006.3 - 7.6 - Partly cloudy 10 - - - -
04/03:00am 14.5 WSW 11 19 1006.2 - 7.6 - Partly cloudy 10 - - - -
04/02:30am 14.6 WSW 13 20 1006.2 - 7.6 - Partly cloudy 10 - - - -
04/02:14am 14.3 WSW 15 25 1006.4 - 7.6 - Partly cloudy 10 - - - -
04/02:00am 14.6 SW 11 18 1006.3 - 7.4 - Partly cloudy 10 - - - -
04/01:30am 14.2 W 11 17 1006.0 - 7.4 - Cloudy 10 - - - -
04/01:24am 14.4 W 11 20 1006.2 - 7.4 - Partly cloudy 9 - - - -
04/01:08am 14.6 W 18 24 1006.4 - 7.4 - Partly cloudy 6 - - - -
04/01:07am 14.6 W 19 24 1006.4 - 7.4 - Partly cloudy 7 - - - -
04/01:00am 15.0 W 8 14 1006.3 - 6.8 - Partly cloudy 10 - - - -
04/12:30am 13.0 WSW 2 4 1006.5 - 6.8 - Partly cloudy 10 - - - -
04/12:14am 13.4 WNW 5 6 1006.7 - 6.8 - Partly cloudy 10 - - - -
04/12:00am 14.3 W 12 20 1007.0 - 6.8 - Partly cloudy 5 - - - -
 
Date/Time
EST
Temp

°C
Wind Pressure Rain
since 9am
mm
Weather Cloud Vis
km
Sea
Height
m
Swell
Dir
 
Speed
knots
Gust
knots
hPa Trend Height
m
Period
s
Dir
03/11:58pm 14.5 W 13 20 1007.0 - 6.6 - Partly cloudy 6 - - - -
03/11:30pm 15.5 W 12 18 1007.2 - 5.6 - Partly cloudy 10 - - - -
03/11:01pm 14.5 W 10 16 1007.3 - 5.6 - Partly cloudy 10 - - - -
03/11:00pm 14.4 W 10 14 1007.3 - 5.6 - Partly cloudy 10 - - - -
03/10:47pm 14.4 W 18 31 1007.4 - 5.6 - Partly cloudy 6 - - - -
03/10:40pm 15.0 W 21 31 1007.5 - 5.2 - Partly cloudy 10 - - - -
03/10:30pm 16.6 W 9 15 1007.2 - 5.2 - Cloudy 10 - - - -
03/10:00pm 16.1 WNW 9 11 1007.5 - 5.2 Showers Partly cloudy 10 - - - -
03/09:30pm 16.0 W 10 14 1007.7 - 5.2 - Mostly clear 10 - - - -
03/09:00pm 15.2 WNW 10 14 1008.2 - 5.2 - Mostly clear 10 - - - -
03/08:30pm 15.4 WSW 9 13 1008.3 - 5.0 - Mostly cloudy 10 - - - -
03/08:00pm 15.9 W 7 10 1008.6 - 4.6 - Mostly clear 10 - - - -
03/07:30pm 15.7 WSW 6 9 1008.2 F 4.6 Fine Mostly cloudy 20 - - - -
03/07:00pm 15.9 SW 11 16 1008.3 - 4.6 - Mostly clear 10 - - - -
03/06:50pm 16.1 SW 13 18 1008.5 - 4.6 - Partly cloudy 10 - - - -
03/06:30pm 16.1 WSW 17 25 1008.5 - 4.6 - Mostly clear 10 - - - -
03/06:09pm 15.9 WSW 19 29 1008.3 - 4.6 Showers Mostly cloudy 10 - - - -
03/06:03pm 16.0 WSW 23 29 1008.3 - 4.4 Showers Mostly cloudy 6 - - - -
03/06:00pm 16.1 W 17 28 1008.1 - 4.2 Showers Mostly cloudy 10 - - - -
03/05:58pm 16.6 W 15 28 1008.1 - 4.0 Showers Mostly cloudy 10 - - - -
03/05:30pm 18.0 W 13 18 1007.9 - 3.8 - Mostly clear 10 - - - -
03/05:00pm 18.0 W 12 17 1007.9 - 3.8 - Partly cloudy 10 - - - -
03/04:30pm 17.8 W 12 16 1007.6 F 3.8 Fine Partly cloudy 40 - - - -
03/04:00pm 17.9 W 13 19 1007.7 - 3.8 - Mostly clear 10 - - - -
03/03:30pm 17.4 WNW 7 11 1007.7 - 3.8 - Mostly clear 10 - - - -
03/03:00pm 17.7 NW 8 11 1007.7 - 3.8 - Partly cloudy 10 - - - -
03/02:30pm 17.7 NW 7 11 1007.9 - 3.8 - Partly cloudy 10 - - - -
03/02:00pm 18.6 NW 7 10 1008.0 - 3.8 - - 10 - - - -
03/01:30pm 18.6 WNW 7 10 1008.0 F 3.8 Fine Mostly clear 35 - - - -
03/01:00pm 19.1 W 4 7 1008.4 - 3.8 - Mostly clear 10 - - - -
03/12:30pm 18.5 N 3 5 1008.8 - 3.8 - Mostly clear 10 - - - -
03/12:00pm 16.5 N 4 5 1009.4 - 3.6 Rain Mostly clear 9 - - - -
03/11:30am 16.6 NNE 4 6 1009.9 - 3.4 Rain Mostly clear 8 - - - -
03/11:00am 16.7 NNE 6 9 1010.3 - 3.4 - Mostly clear 10 - - - -
03/10:30am 15.9 NNE 8 11 1010.9 F 3.4 Recent precip. Mostly cloudy 20 - - - -
03/10:00am 15.9 N 5 8 1011.9 - 3.2 Rain Partly cloudy 7 - - - -
03/09:30am 16.1 NNW 6 12 1012.4 - 2.6 Rain Partly cloudy 5 - - - -
03/09:00am 16.3 N 7 12 1012.8 - 1.2 Rain Mostly clear 7 - - - -
03/08:30am 16.2 N 7 10 1013.0 - 0.8 - Partly cloudy 9 - - - -
03/08:00am 16.5 NNW 6 9 1012.8 - 0.6 Rain Partly cloudy 5 - - - -
03/07:52am 16.8 NNW 7 11 1012.9 - 0.4 - Partly cloudy 6 - - - -
03/07:46am 16.8 NNW 6 10 1012.9 - 0.2 - Partly cloudy 10 - - - -
03/07:30am 16.9 NNW 5 8 1013.1 F 3.2 Rain Cloudy 6 - - - -
03/07:00am 16.5 N 7 12 1013.3 - 2.6 Showers Partly cloudy 5 - - - -
03/06:30am 16.4 N 6 9 1012.9 - 2.6 - Mostly clear 10 - - - -
03/06:00am 15.9 N 8 14 1013.2 - 2.6 - Mostly clear 10 - - - -
03/05:30am 16.0 N 7 14 1013.0 - 2.4 - Partly cloudy 10 - - - -
03/05:24am 16.0 N 7 11 1013.0 - 2.4 - Partly cloudy 10 - - - -
03/05:11am 16.0 N 9 16 1012.8 - 2.4 - Partly cloudy 6 - - - -
03/05:10am 16.0 N 9 16 1012.9 - 2.4 - Partly cloudy 7 - - - -
03/05:00am 16.2 NNW 8 10 1012.9 - 2.2 - Partly cloudy 6 - - - -
03/04:42am 17.6 NNW 7 14 1012.9 - 0.6 - Partly cloudy 6 - - - -
03/04:30am 18.1 N 8 15 1012.7 - 0.0 - Cloudy 10 - - - -
03/04:00am 18.3 N 9 15 1012.7 - 0.0 - Partly cloudy 10 - - - -
03/03:30am 18.3 N 9 15 1012.7 - 0.0 - Partly cloudy 10 - - - -
03/03:00am 18.1 N 8 15 1013.2 - 0.0 - Partly cloudy 10 - - - -
03/02:30am 18.3 N 11 18 1013.5 - 0.0 - Partly cloudy 10 - - - -
03/02:00am 18.0 N 9 19 1013.8 - 0.0 - Partly cloudy 10 - - - -
03/01:30am 18.0 N 11 18 1014.1 - 0.0 - Mostly clear 10 - - - -
03/01:00am 18.0 N 10 17 1014.8 - 0.0 - Partly cloudy 10 - - - -
03/12:30am 17.9 N 10 15 1015.1 - 0.0 - Partly cloudy 10 - - - -
03/12:00am 17.9 N 9 14 1015.5 - 0.0 - Partly cloudy 10 - - - -
 
Date/Time
EST
Temp

°C
Wind Pressure Rain
since 9am
mm
Weather Cloud Vis
km
Sea
Height
m
Swell
Dir
 
Speed
knots
Gust
knots
hPa Trend Height
m
Period
s
Dir
02/11:30pm 17.8 N 9 17 1015.8 - 0.0 - Partly cloudy 10 - - - -
02/11:00pm 17.8 N 11 17 1016.2 - 0.0 - Partly cloudy 10 - - - -
02/10:30pm 17.8 N 10 15 1016.2 - 0.0 - - 10 - - - -
02/10:00pm 17.8 N 12 18 1016.7 - 0.0 - Mostly clear 10 - - - -
02/09:30pm 17.9 N 9 17 1017.1 - 0.0 - Partly cloudy 10 - - - -
02/09:00pm 17.2 NNE 9 15 1017.0 - 0.0 - Mostly clear 10 - - - -
02/08:30pm 17.0 NNE 10 15 1017.2 - 0.0 - Mostly clear 10 - - - -
02/08:00pm 17.7 N 12 17 1017.8 - 0.0 - Mostly clear 10 - - - -
02/07:30pm 17.6 NNE 12 18 1017.8 F 0.0 Fine Mostly clear 40 - - - -
02/07:00pm 17.4 N 11 15 1017.8 - 0.0 - Partly cloudy 10 - - - -
02/06:30pm 17.3 NNE 10 17 1017.9 - 0.0 - Mostly clear 10 - - - -
02/06:00pm 17.2 N 8 12 1018.0 - 0.0 - Mostly clear 10 - - - -
02/05:30pm 17.2 NNE 8 13 1017.7 - 0.0 - Mostly clear 10 - - - -
02/05:00pm 17.0 NNE 7 12 1017.6 - 0.0 - Mostly clear 10 - - - -
02/04:30pm 17.0 NNE 7 10 1017.3 F 0.0 Fine Partly cloudy 40 - - - -
02/04:00pm 17.0 NNE 7 12 1017.5 - 0.0 - Mostly clear 10 - - - -
02/03:30pm 17.8 NNE 8 13 1017.5 - 0.0 - Mostly clear 10 - - - -
02/03:00pm 18.3 NNE 10 16 1017.3 - 0.0 - Mostly clear 10 - - - -
02/02:30pm 18.6 NNE 11 18 1017.3 - 0.0 - Mostly clear 10 - - - -
02/02:00pm 18.7 NNE 10 16 1017.6 - 0.0 - Partly cloudy 10 - - - -
02/01:30pm 18.9 NNE 11 15 1017.4 F 0.0 Fine Partly cloudy 40 - - - -
02/01:00pm 19.0 NNE 10 15 1017.7 - 0.0 - Mostly clear 10 - - - -
02/12:30pm 19.0 NNE 11 16 1017.9 - 0.0 - Mostly clear 10 - - - -
02/12:00pm 18.7 NNE 11 17 1018.2 - 0.0 - Mostly clear 10 - - - -
02/11:30am 19.0 NNE 12 17 1018.8 - 0.0 - Mostly clear 10 - - - -
02/11:00am 18.9 NNE 11 17 1019.5 - 0.0 - Mostly clear 10 - - - -
02/10:30am 18.8 NE 9 15 1020.1 F 0.0 Fine Mostly clear 40 - - - -
02/10:00am 19.1 NNE 9 14 1020.6 - 0.0 - Mostly clear 10 - - - -
02/09:30am 18.3 NE 11 14 1021.0 - 0.0 - Mostly clear 10 - - - -
02/09:00am 18.2 NE 9 13 1021.4 - 0.0 - Mostly clear 10 - - - -
02/08:30am 17.7 NE 10 13 1021.4 - 0.0 - Mostly clear 10 - - - -
02/08:00am 17.6 NE 9 14 1021.4 - 0.0 - Mostly clear 10 - - - -
02/07:30am 17.2 NE 8 11 1021.3 F 0.0 Fine Partly cloudy 40 - - - -
02/07:00am 14.9 ENE 5 7 1021.3 - 0.0 - Mostly clear 10 - - - -
02/06:30am 14.8 ENE 6 8 1021.1 - 0.0 - Mostly clear 10 - - - -
02/06:00am 13.3 ENE 6 8 1020.8 - 0.0 - Mostly clear 10 - - - -
02/05:30am 14.0 ENE 5 6 1020.7 - 0.0 - - 10 - - - -
02/05:00am 12.2 ENE 7 7 1020.5 - 0.0 - - 10 - - - -
02/04:30am 12.9 ENE 6 6 1020.4 - 0.0 - - 10 - - - -
02/04:00am 13.1 ENE 6 6 1020.5 - 0.0 - - 10 - - - -
02/03:30am 13.5 ENE 6 6 1020.5 - 0.0 - - 10 - - - -
02/03:00am 12.7 E 6 7 1020.7 - 0.0 - - 10 - - - -
02/02:30am 14.8 NE 7 8 1021.2 - 0.0 - - 10 - - - -
02/02:00am 14.3 ENE 6 8 1021.4 - 0.0 - - 10 - - - -
02/01:30am 14.8 NE 8 10 1021.4 - 0.0 - - 10 - - - -
02/01:00am 14.4 NE 8 9 1022.1 - 0.0 - - 10 - - - -
02/12:30am 14.0 ENE 8 9 1022.5 - 0.0 - - 10 - - - -
02/12:00am 11.9 ENE 7 8 1022.8 - 0.0 - - 10 - - - -
 
Date/Time
EST
Temp

°C
Wind Pressure Rain
since 9am
mm
Weather Cloud Vis
km
Sea
Height
m
Swell
Dir
 
Speed
knots
Gust
knots
hPa Trend Height
m
Period
s
Dir
01/11:30pm 13.3 NE 6 7 1023.4 - 0.0 - - 10 - - - -
01/11:00pm 14.5 NE 6 7 1023.7 - 0.0 - - 10 - - - -
01/10:30pm 13.4 E 4 5 1023.7 - 0.0 - - 10 - - - -
01/10:00pm 13.3 ENE 6 8 1023.9 - 0.0 - Mostly clear 10 - - - -
01/09:30pm 12.7 ENE 5 6 1023.9 - 0.0 - Mostly clear 10 - - - -
01/09:00pm 13.6 ENE 5 7 1023.9 - 0.0 - Mostly clear 10 - - - -
01/08:30pm 12.6 E 5 7 1024.1 - 0.0 - Mostly clear 10 - - - -
01/08:00pm 13.6 ENE 4 5 1024.3 - 0.0 - Mostly clear 10 - - - -
01/07:30pm 13.1 ENE 4 5 1024.0 F 0.0 Fine Mostly clear 40 - - - -
01/07:00pm 13.9 ENE 5 5 1024.0 - 0.0 - Mostly clear 10 - - - -
01/06:30pm 13.2 ENE 5 5 1023.8 - 0.0 - Mostly clear 10 - - - -
01/06:00pm 13.5 ENE 5 5 1023.8 - 0.0 - Mostly clear 10 - - - -
01/05:30pm 13.4 E 5 6 1023.7 - 0.0 - Mostly clear 10 - - - -
01/05:00pm 13.6 ENE 6 7 1023.5 - 0.0 - Mostly clear 10 - - - -
01/04:30pm 14.1 E 4 4 1023.2 F 0.0 Fine Mostly clear 35 - - - -
01/04:00pm 14.8 E 5 6 1023.6 - 0.0 - Mostly clear 10 - - - -
01/03:30pm 16.1 E 6 8 1023.7 - 0.0 - Mostly clear 10 - - - -
01/03:00pm 17.0 E 6 9 1023.9 - 0.0 - Mostly clear 10 - - - -
01/02:30pm 16.4 ESE 6 10 1024.1 - 0.0 - Mostly clear 10 - - - -
01/02:00pm 17.6 SE 8 10 1024.2 - 0.0 - Mostly clear 10 - - - -
01/01:30pm 17.6 ESE 6 8 1023.9 F 0.0 Fine Mostly clear 30 - - - -
01/01:00pm 17.4 ESE 7 9 1024.4 - 0.0 - Mostly clear 10 - - - -
01/12:30pm 16.4 SE 6 8 1024.6 - 0.0 - Partly cloudy 10 - - - -
01/12:00pm 16.5 SE 8 11 1024.9 - 0.0 - Mostly clear 10 - - - -
01/11:30am 16.7 SSE 9 13 1025.3 - 0.0 - Mostly clear 10 - - - -
01/09:30am 17.4 ESE 8 9 1026.6 - 0.0 - Mostly clear 10 - - - -
01/09:00am 17.6 ESE 6 10 1027.1 - 0.0 - Mostly clear 10 - - - -
01/08:30am 18.1 ESE 7 10 1027.3 - 0.0 - Mostly clear 10 - - - -
01/08:00am 17.6 E 7 10 1027.1 - 0.0 - Mostly clear 10 - - - -
01/07:30am 16.8 ESE 6 9 1026.5 F 0.0 Fine Mostly clear 30 - - - -
01/07:00am 16.2 ESE 6 9 1026.6 - 0.0 - Mostly clear 10 - - - -
01/06:30am 15.3 ESE 5 6 1026.4 - 0.0 - Mostly clear 10 - - - -
01/06:00am 14.3 ESE 4 5 1026.4 - 0.0 - Mostly clear 10 - - - -
01/05:30am 14.1 ESE 5 7 1025.9 - 0.0 - - 10 - - - -
01/05:00am 13.6 E 6 8 1025.5 - 0.0 - - 10 - - - -
01/04:30am 13.7 E 5 7 1025.5 - 0.0 - - 10 - - - -
01/04:00am 14.0 ESE 5 8 1025.8 - 0.0 - - 10 - - - -
01/03:30am 13.7 E 4 5 1026.0 - 0.0 - - 10 - - - -

Other Formats:

Comma delimited format used in spreadsheet applications
http://www.bom.gov.au/fwo/IDN60701/IDN60701.94996.axf

JavaScript Object Notation format (JSON) in row-major order
http://www.bom.gov.au/fwo/IDN60701/IDN60701.94996.json